Time;durP1;ratioP1;P1;durP2;ratioP2;P2;SDS_P1;SDS_P2;PMS_P1;PMS_P2;Temp;Humidity;BMP_temperature;BMP_pressure;BME280_temperature;BME280_humidity;BME280_pressure;Samples;Min_cycle;Max_cycle;Signal;HPM_P1;HPM_P2
2023/10/01 00:01:16;;;;;;;;;;;;;;;13.25;100.00;102389.09;5033110;28;19920;-70
2023/10/01 00:03:42;;;;;;;;;;;;;;;13.24;100.00;102384.69;5031847;28;19927;-70
2023/10/01 00:06:07;;;;;;;;;;;;;;;13.13;100.00;102385.38;5035192;28;19920;-70
2023/10/01 00:08:33;;;;;;;;;;;;;;;13.14;100.00;102374.47;5034488;28;19920;-70
2023/10/01 00:11:00;;;;;;;;;;;;;;;12.96;100.00;102375.66;5030862;28;20438;-70
2023/10/01 00:13:26;;;;;;;;;;;;;;;12.80;100.00;102375.75;5028985;28;19924;-70
2023/10/01 00:15:52;;;;;;;;;;;;;;;12.73;100.00;102378.84;5033175;28;19920;-69
2023/10/01 00:18:17;;;;;;;;;;;;;;;12.68;100.00;102372.88;5046923;28;20397;-69
2023/10/01 00:20:43;;;;;;;;;;;;;;;12.54;100.00;102384.53;5044961;28;19975;-70
2023/10/01 00:23:08;;;;;;;;;;;;;;;12.48;100.00;102386.69;5031643;28;19921;-70
2023/10/01 00:25:34;;;;;;;;;;;;;;;12.59;100.00;102389.63;5036005;28;19983;-70
2023/10/01 00:28:00;;;;;;;;;;;;;;;12.59;100.00;102378.84;5014015;28;19925;-70
2023/10/01 00:30:28;;;;;;;;;;;;;;;12.54;100.00;102384.53;5030721;28;19929;-70
2023/10/01 00:32:55;;;;;;;;;;;;;;;12.53;100.00;102381.91;5033257;28;20294;-69
2023/10/01 00:35:20;;;;;;;;;;;;;;;12.54;100.00;102380.94;5031194;28;20419;-69
2023/10/01 00:37:46;;;;;;;;;;;;;;;12.55;100.00;102370.09;5045327;28;19924;-69
2023/10/01 00:40:11;;;;;;;;;;;;;;;12.49;100.00;102366.88;5036961;28;20316;-71
2023/10/01 00:42:37;;;;;;;;;;;;;;;12.44;100.00;102372.56;5030729;28;20003;-70
2023/10/01 00:45:03;;;;;;;;;;;;;;;12.39;100.00;102371.97;5033532;28;19921;-70
2023/10/01 00:47:29;;;;;;;;;;;;;;;12.37;100.00;102372.09;5030431;28;20331;-69
2023/10/01 00:49:54;;;;;;;;;;;;;;;12.34;100.00;102372.28;5031482;28;19964;-70
2023/10/01 00:52:19;;;;;;;;;;;;;;;12.26;100.00;102351.19;5045794;28;20191;-70
2023/10/01 00:54:45;;;;;;;;;;;;;;;12.13;100.00;102350.19;5032822;28;19925;-70
2023/10/01 00:57:10;;;;;;;;;;;;;;;12.23;100.00;102372.94;5035119;28;19967;-70
2023/10/01 00:59:36;;;;;;;;;;;;;;;12.11;100.00;102365.56;5034802;28;20014;-69
2023/10/01 01:02:05;;;;;;;;;;;;;;;12.03;100.00;102367.88;5030507;28;19921;-70
2023/10/01 01:04:36;;;;;;;;;;;;;;;12.00;100.00;102366.22;5032702;28;20363;-70
2023/10/01 01:07:04;;;;;;;;;;;;;;;11.97;100.00;102360.97;5034087;28;19925;-70
2023/10/01 01:09:30;;;;;;;;;;;;;;;11.97;100.00;102361.88;5033801;28;19929;-70
2023/10/01 01:11:55;;;;;;;;;;;;;;;12.08;100.00;102360.38;5030511;28;19924;-70
2023/10/01 01:14:21;;;;;;;;;;;;;;;12.12;100.00;102357.41;5033307;28;19955;-69
2023/10/01 01:16:48;;;;;;;;;;;;;;;12.13;100.00;102355.56;5035449;28;19917;-70
2023/10/01 01:19:15;;;;;;;;;;;;;;;12.20;100.00;102359.63;5031526;28;19960;-67
2023/10/01 01:21:42;;;;;;;;;;;;;;;12.20;100.00;102345.28;5032783;28;19935;-70
2023/10/01 01:24:08;;;;;;;;;;;;;;;12.23;100.00;102347.81;5047025;28;19913;-70
2023/10/01 01:26:33;;;;;;;;;;;;;;;12.28;100.00;102345.69;5034784;28;19921;-70
2023/10/01 01:29:16;;;;;;;;;;;;;;;12.33;100.00;102340.91;5032687;28;20453;-69
2023/10/01 01:31:45;;;;;;;;;;;;;;;12.41;100.00;102335.94;5033569;28;19928;-69
2023/10/01 01:34:12;;;;;;;;;;;;;;;12.42;100.00;102340.34;5034274;28;19929;-70
2023/10/01 01:36:38;;;;;;;;;;;;;;;12.42;100.00;102339.47;5036011;28;19928;-71
2023/10/01 01:39:26;;;;;;;;;;;;;;;12.40;100.00;102333.31;5033362;28;19921;-70
2023/10/01 01:41:51;;;;;;;;;;;;;;;12.41;100.00;102335.94;5033847;28;20339;-70
2023/10/01 01:44:17;;;;;;;;;;;;;;;12.46;100.00;102332.94;5032299;28;19931;-70
2023/10/01 01:46:49;;;;;;;;;;;;;;;12.47;100.00;102320.31;5046861;28;19956;-70
2023/10/01 01:49:18;;;;;;;;;;;;;;;12.48;100.00;102322.94;5031145;28;19967;-70
2023/10/01 01:51:56;;;;;;;;;;;;;;;12.52;100.00;102329.88;5033541;28;20221;-67
2023/10/01 01:54:23;;;;;;;;;;;;;;;12.49;100.00;102321.97;5029878;28;19931;-70
2023/10/01 01:56:50;;;;;;;;;;;;;;;12.45;100.00;102320.44;5045605;28;20690;-70
2023/10/01 01:59:21;;;;;;;;;;;;;;;12.48;100.00;102319.34;5032037;28;19952;-71
2023/10/01 02:01:46;;;;;;;;;;;;;;;12.48;100.00;102319.34;5045589;28;19924;-70
2023/10/01 02:04:12;;;;;;;;;;;;;;;12.40;100.00;102312.66;5013447;28;19921;-70
2023/10/01 02:06:37;;;;;;;;;;;;;;;12.40;100.00;102311.75;5027354;28;20264;-69
2023/10/01 02:09:12;;;;;;;;;;;;;;;12.30;100.00;102311.47;5030230;28;20378;-70
2023/10/01 02:11:37;;;;;;;;;;;;;;;12.31;100.00;102310.50;5032005;28;19920;-70
2023/10/01 02:14:05;;;;;;;;;;;;;;;12.29;100.00;102301.66;5027532;28;19922;-70
2023/10/01 02:16:35;;;;;;;;;;;;;;;12.27;100.00;102301.75;5029285;28;19925;-70
2023/10/01 02:19:21;;;;;;;;;;;;;;;12.30;100.00;102303.38;5029479;28;19975;-72
2023/10/01 02:21:52;;;;;;;;;;;;;;;12.31;100.00;102299.75;5030071;28;20347;-70
2023/10/01 02:24:37;;;;;;;;;;;;;;;12.37;100.00;102306.56;5042313;28;19920;-70
2023/10/01 02:27:04;;;;;;;;;;;;;;;12.32;100.00;102303.28;5030374;28;19928;-71
2023/10/01 02:29:32;;;;;;;;;;;;;;;12.33;100.00;102307.72;5028225;28;20358;-70
2023/10/01 02:31:57;;;;;;;;;;;;;;;12.35;100.00;102309.38;5031317;28;19921;-70
2023/10/01 02:34:23;;;;;;;;;;;;;;;12.32;100.00;102305.97;5047236;28;19943;-67
2023/10/01 02:36:49;;;;;;;;;;;;;;;12.33;100.00;102316.66;5028386;28;20306;-70
2023/10/01 02:39:47;;;;;;;;;;;;;;;12.28;100.00;102314.28;5030666;28;20283;-70
2023/10/01 02:44:40;;;;;;;;;;;;;;;12.24;100.00;102307.34;5032296;28;20007;-69
2023/10/01 02:47:22;;;;;;;;;;;;;;;12.23;100.00;102311.00;5026613;28;20434;-68
2023/10/01 02:49:49;;;;;;;;;;;;;;;12.13;100.00;102309.81;5029562;28;19963;-69
2023/10/01 02:52:18;;;;;;;;;;;;;;;12.02;100.00;102305.09;5029296;28;20333;-69
2023/10/01 02:54:43;;;;;;;;;;;;;;;11.93;100.00;102305.59;5032058;28;20419;-69
2023/10/01 02:57:23;;;;;;;;;;;;;;;11.88;100.00;102305.88;5030982;28;20058;-69
2023/10/01 03:02:37;;;;;;;;;;;;;;;11.83;100.00;102295.41;5034659;28;19927;-69
2023/10/01 03:05:05;;;;;;;;;;;;;;;11.78;100.00;102302.03;5034044;28;19920;-68
2023/10/01 03:07:38;;;;;;;;;;;;;;;11.79;100.00;102306.41;5031440;28;19932;-68
2023/10/01 03:10:15;;;;;;;;;;;;;;;11.82;100.00;102303.56;5043827;28;20038;-69
2023/10/01 03:12:42;;;;;;;;;;;;;;;11.78;100.00;102296.66;5036332;28;19928;-69
2023/10/01 03:17:55;;;;;;;;;;;;;;;11.62;100.00;102286.78;5033294;28;20018;-69
2023/10/01 03:23:25;;;;;;;;;;;;;;;11.60;100.00;102290.53;5030419;28;19967;-69
2023/10/01 03:28:26;;;;;;;;;;;;;;;11.45;100.00;102287.78;5036335;28;20395;-69
2023/10/01 03:31:06;;;;;;;;;;;;;;;11.47;100.00;102291.22;5033790;28;20397;-68
2023/10/01 03:33:32;;;;;;;;;;;;;;;11.44;100.00;102287.88;5036768;28;19913;-69
2023/10/01 03:35:57;;;;;;;;;;;;;;;11.47;100.00;102299.31;5035026;28;20425;-68
2023/10/01 03:38:27;;;;;;;;;;;;;;;11.49;100.00;102291.16;5037214;28;20149;-69
2023/10/01 03:41:06;;;;;;;;;;;;;;;11.46;100.00;102288.66;5034806;28;19925;-69
2023/10/01 03:43:32;;;;;;;;;;;;;;;11.43;100.00;102291.50;5031362;28;19943;-69
2023/10/01 03:46:06;;;;;;;;;;;;;;;11.49;100.00;102293.84;5033794;28;20391;-70
2023/10/01 03:48:57;;;;;;;;;;;;;;;11.44;100.00;102290.56;5031944;28;19927;-69
2023/10/01 03:51:28;;;;;;;;;;;;;;;11.46;100.00;102294.03;5035522;28;19978;-68
2023/10/01 03:53:58;;;;;;;;;;;;;;;11.44;100.00;102288.72;5034530;28;19952;-68
2023/10/01 03:56:24;;;;;;;;;;;;;;;11.47;100.00;102287.69;5032877;28;19973;-69
2023/10/01 03:58:49;;;;;;;;;;;;;;;11.52;100.00;102293.69;5034036;28;19929;-70
2023/10/01 04:01:33;;;;;;;;;;;;;;;11.58;100.00;102287.91;5035809;28;20351;-69
2023/10/01 04:04:00;;;;;;;;;;;;;;;11.62;100.00;102289.47;5034203;28;20372;-71
2023/10/01 04:06:25;;;;;;;;;;;;;;;11.76;100.00;102290.50;5037846;28;20324;-71
2023/10/01 04:08:55;;;;;;;;;;;;;;;11.84;100.00;102289.06;5034286;28;20416;-69
2023/10/01 04:11:41;;;;;;;;;;;;;;;11.98;100.00;102290.03;5034847;28;19946;-71
2023/10/01 04:14:10;;;;;;;;;;;;;;;12.05;100.00;102283.38;5034196;28;19967;-70
2023/10/01 04:16:36;;;;;;;;;;;;;;;12.03;100.00;102287.97;5034418;28;20535;-71
2023/10/01 04:19:01;;;;;;;;;;;;;;;12.10;100.00;102280.38;5035709;28;20704;-71
2023/10/01 04:21:28;;;;;;;;;;;;;;;12.07;100.00;102286.81;5026605;28;19932;-71
2023/10/01 04:23:54;;;;;;;;;;;;;;;12.10;100.00;102280.38;5033899;28;20391;-71
2023/10/01 04:26:20;;;;;;;;;;;;;;;12.17;100.00;102280.88;5035285;28;19924;-71
2023/10/01 04:28:54;;;;;;;;;;;;;;;12.08;100.00;102287.69;5033370;28;19919;-71
2023/10/01 04:31:42;;;;;;;;;;;;;;;12.02;100.00;102286.25;5033547;28;19924;-71
2023/10/01 04:34:05;;;;;;;;;;;;;;;12.07;100.00;102283.25;5033288;28;19976;-71
2023/10/01 04:36:32;;;;;;;;;;;;;;;12.10;100.00;102278.56;5044753;28;20135;-69
2023/10/01 04:39:00;;;;;;;;;;;;;;;12.10;100.00;102286.66;5040537;22;19930;-72
2023/10/01 04:41:25;;;;;;;;;;;;;;;12.09;100.00;102282.22;5011358;28;19991;-71
2023/10/01 04:44:00;;;;;;;;;;;;;;;12.11;100.00;102279.41;4999278;28;20364;-70
2023/10/01 04:46:25;;;;;;;;;;;;;;;12.13;100.00;102282.88;5014674;28;19936;-70
2023/10/01 04:48:54;;;;;;;;;;;;;;;12.19;100.00;102278.94;5014104;28;19935;-71
2023/10/01 04:51:22;;;;;;;;;;;;;;;12.24;100.00;102280.41;5015383;28;20002;-69
2023/10/01 04:53:47;;;;;;;;;;;;;;;12.25;100.00;102278.56;4995818;28;20020;-69
2023/10/01 04:56:20;;;;;;;;;;;;;;;12.26;100.00;102283.00;5013437;28;19974;-71
2023/10/01 04:58:46;;;;;;;;;;;;;;;12.33;100.00;102272.69;4994134;28;19925;-71
2023/10/01 05:01:11;;;;;;;;;;;;;;;12.32;100.00;102281.75;5013525;28;20038;-71
2023/10/01 05:03:40;;;;;;;;;;;;;;;12.32;100.00;102288.00;4993538;28;19960;-71
2023/10/01 05:06:09;;;;;;;;;;;;;;;12.24;100.00;102275.03;5011948;28;19964;-71
2023/10/01 05:08:38;;;;;;;;;;;;;;;12.13;100.00;102275.69;5013387;28;19963;-68
2023/10/01 05:11:10;;;;;;;;;;;;;;;12.14;100.00;102272.03;5015066;28;19921;-69
2023/10/01 05:13:35;;;;;;;;;;;;;;;12.06;100.00;102278.84;5013630;28;19920;-69
2023/10/01 05:16:06;;;;;;;;;;;;;;;12.06;100.00;102279.72;5010851;28;19925;-71
2023/10/01 05:18:33;;;;;;;;;;;;;;;11.98;100.00;102279.28;5011685;28;19923;-69
2023/10/01 05:20:58;;;;;;;;;;;;;;;11.93;100.00;102286.75;5012180;28;19961;-70
2023/10/01 05:23:27;;;;;;;;;;;;;;;11.88;100.00;102287.03;5011045;28;20051;-69
2023/10/01 05:25:52;;;;;;;;;;;;;;;11.82;100.00;102290.97;5013136;28;19928;-69
2023/10/01 05:28:34;;;;;;;;;;;;;;;11.74;100.00;102290.56;5011918;28;19917;-69
2023/10/01 05:31:06;;;;;;;;;;;;;;;11.65;100.00;102293.81;5011285;28;19921;-70
2023/10/01 05:33:33;;;;;;;;;;;;;;;11.61;100.00;102289.56;5013500;28;19921;-70
2023/10/01 05:36:00;;;;;;;;;;;;;;;11.53;100.00;102293.56;5014115;28;20395;-69
2023/10/01 05:38:26;;;;;;;;;;;;;;;11.50;100.00;102304.50;5015494;28;19971;-70
2023/10/01 05:40:54;;;;;;;;;;;;;;;11.55;100.00;102306.91;5015924;28;20075;-69
2023/10/01 05:43:23;;;;;;;;;;;;;;;11.57;100.00;102298.78;5012735;28;19917;-70
2023/10/01 05:45:52;;;;;;;;;;;;;;;11.50;100.00;102304.50;5014608;28;19925;-70
2023/10/01 05:48:22;;;;;;;;;;;;;;;11.44;100.00;102298.63;5013200;28;19956;-70
2023/10/01 05:50:49;;;;;;;;;;;;;;;11.37;100.00;102307.03;5013663;28;19917;-70
2023/10/01 05:53:14;;;;;;;;;;;;;;;11.33;100.00;102305.47;5015033;28;19995;-70
2023/10/01 05:55:40;;;;;;;;;;;;;;;11.31;100.00;102310.09;5013434;28;20023;-69
2023/10/01 05:58:14;;;;;;;;;;;;;;;11.31;100.00;102310.09;4995621;28;19980;-70
2023/10/01 06:00:53;;;;;;;;;;;;;;;11.35;100.00;102303.56;5013882;28;20398;-69
2023/10/01 06:03:19;;;;;;;;;;;;;;;11.41;100.00;102307.72;5014679;28;19925;-70
2023/10/01 06:08:14;;;;;;;;;;;;;;;11.49;100.00;102308.16;4995796;28;19961;-69
2023/10/01 06:10:59;;;;;;;;;;;;;;;11.54;100.00;102306.06;5012691;28;19921;-70
2023/10/01 06:13:24;;;;;;;;;;;;;;;11.43;100.00;102275.38;5010922;28;19925;-70
2023/10/01 06:15:49;;;;;;;;;;;;;;;11.74;100.00;102313.94;5015058;28;20416;-69
2023/10/01 06:18:14;;;;;;;;;;;;;;;11.75;100.00;102307.59;4996305;28;19928;-68
2023/10/01 06:20:42;;;;;;;;;;;;;;;11.83;100.00;102310.66;4989670;28;19928;-69
2023/10/01 06:23:07;;;;;;;;;;;;;;;11.93;100.00;102308.28;5009452;28;20391;-70
2023/10/01 06:25:40;;;;;;;;;;;;;;;11.94;100.00;102308.22;5005934;28;19924;-70
2023/10/01 06:28:09;;;;;;;;;;;;;;;12.00;100.00;102310.56;5008128;28;19960;-71
2023/10/01 06:30:35;;;;;;;;;;;;;;;12.07;100.00;102313.75;5006934;28;20023;-71
2023/10/01 06:33:00;;;;;;;;;;;;;;;12.17;100.00;102318.59;5009429;28;19921;-69
2023/10/01 06:35:26;;;;;;;;;;;;;;;12.26;100.00;102318.00;5013448;28;19927;-71
2023/10/01 06:37:53;;;;;;;;;;;;;;;12.34;100.00;102318.41;5011597;28;19925;-69
2023/10/01 06:40:30;;;;;;;;;;;;;;;12.42;100.00;102309.84;5013678;28;20381;-70
2023/10/01 06:42:58;;;;;;;;;;;;;;;12.53;100.00;102311.84;5013140;28;19921;-69
2023/10/01 06:45:38;;;;;;;;;;;;;;;12.59;100.00;102308.78;5013074;28;20431;-70
2023/10/01 06:48:10;;;;;;;;;;;;;;;12.71;100.00;102307.16;5015024;28;20015;-69
2023/10/01 06:50:44;;;;;;;;;;;;;;;12.77;100.00;102309.44;5012089;28;20398;-70
2023/10/01 06:53:09;;;;;;;;;;;;;;;12.84;100.00;102301.84;5010535;28;19988;-70
2023/10/01 06:55:36;;;;;;;;;;;;;;;12.88;100.00;102306.06;5009095;28;19933;-69
2023/10/01 06:58:05;;;;;;;;;;;;;;;12.94;100.00;102304.78;5013654;28;19929;-69
2023/10/01 07:00:33;;;;;;;;;;;;;;;12.99;100.00;102286.50;5011871;28;20556;-70
2023/10/01 07:03:16;;;;;;;;;;;;;;;13.02;100.00;102297.94;5014276;28;20015;-71
2023/10/01 07:05:42;;;;;;;;;;;;;;;13.01;100.00;102290.81;5014567;28;19964;-71
2023/10/01 07:08:07;;;;;;;;;;;;;;;13.07;100.00;102286.88;4994863;28;20039;-73
2023/10/01 07:10:36;;;;;;;;;;;;;;;13.17;100.00;102303.31;5012957;28;19928;-70
2023/10/01 07:13:07;;;;;;;;;;;;;;;13.29;100.00;102296.25;5015012;28;19924;-68
2023/10/01 07:15:43;;;;;;;;;;;;;;;13.32;100.00;102296.88;5031727;28;20534;-71
2023/10/01 07:18:15;;;;;;;;;;;;;;;13.40;100.00;102301.78;5029970;28;20032;-70
2023/10/01 07:20:44;;;;;;;;;;;;;;;13.44;100.00;102300.63;5030887;28;20237;-70
2023/10/01 07:23:11;;;;;;;;;;;;;;;13.56;100.00;102314.28;5032886;28;19921;-70
2023/10/01 07:25:42;;;;;;;;;;;;;;;13.64;100.00;102314.59;5026771;28;19941;-71
2023/10/01 07:28:12;;;;;;;;;;;;;;;13.76;100.00;102304.84;5033546;28;19943;-70
2023/10/01 07:30:45;;;;;;;;;;;;;;;13.79;100.00;102304.59;5031646;28;19975;-71
2023/10/01 07:33:11;;;;;;;;;;;;;;;13.91;100.00;102303.78;5023780;28;19917;-68
2023/10/01 07:35:39;;;;;;;;;;;;;;;14.00;100.00;102310.38;5032716;28;19975;-69
2023/10/01 07:38:06;;;;;;;;;;;;;;;14.03;100.00;102312.88;5014909;28;20359;-72
2023/10/01 07:40:50;;;;;;;;;;;;;;;14.13;100.00;102305.00;5017686;28;19921;-70
2023/10/01 07:43:15;;;;;;;;;;;;;;;14.23;100.00;102302.50;5016032;28;19921;-70
2023/10/01 07:45:55;;;;;;;;;;;;;;;14.36;100.00;102307.91;5023697;28;19921;-69
2023/10/01 07:48:21;;;;;;;;;;;;;;;14.46;100.00;102314.41;5023642;28;19921;-70
2023/10/01 07:50:47;;;;;;;;;;;;;;;14.48;100.00;102322.38;5029707;28;19924;-70
2023/10/01 07:53:12;;;;;;;;;;;;;;;14.57;100.00;102316.34;5029705;28;19928;-70
2023/10/01 07:55:38;;;;;;;;;;;;;;;14.65;100.00;102316.66;5028364;28;20249;-72
2023/10/01 07:58:47;;;;;;;;;;;;;;;14.75;100.00;102308.78;5007979;28;20738;-71
2023/10/01 08:01:36;;;;;;;;;;;;;;;14.82;100.00;102315.47;5022574;28;19957;-69
2023/10/01 08:03:55;;;;;;;;;;;;;;;14.97;100.00;102309.91;5013552;28;19921;-71
2023/10/01 08:06:27;;;;;;;;;;;;;;;15.05;100.00;102317.47;5029033;28;19920;-72
2023/10/01 08:08:57;;;;;;;;;;;;;;;15.18;100.00;102321.00;5025015;28;19947;-69
2023/10/01 08:11:58;;;;;;;;;;;;;;;15.36;100.00;102310.63;5029313;28;19927;-70
2023/10/01 08:14:26;;;;;;;;;;;;;;;15.46;100.00;102316.22;5028792;28;21403;-71
2023/10/01 08:16:53;;;;;;;;;;;;;;;15.66;100.00;102320.09;5028311;28;19927;-70
2023/10/01 08:19:21;;;;;;;;;;;;;;;15.78;100.00;102320.16;5027141;28;19916;-69
2023/10/01 08:21:50;;;;;;;;;;;;;;;15.99;100.00;102320.41;5023628;28;20663;-70
2023/10/01 08:24:20;;;;;;;;;;;;;;;16.06;100.00;102329.75;5026188;28;20389;-69
2023/10/01 08:26:58;;;;;;;;;;;;;;;16.25;100.00;102321.06;5022661;28;19925;-70
2023/10/01 08:29:27;;;;;;;;;;;;;;;16.30;100.00;102321.56;5008697;28;19916;-73
2023/10/01 08:34:27;;;;;;;;;;;;;;;16.30;100.00;102326.97;5024555;28;20375;-73
2023/10/01 08:36:56;;;;;;;;;;;;;;;16.51;100.00;102328.13;5012750;28;19966;-69
2023/10/01 08:39:34;;;;;;;;;;;;;;;16.62;100.00;102328.09;5023974;28;19928;-71
2023/10/01 08:42:09;;;;;;;;;;;;;;;16.75;100.00;102322.56;5007681;28;19921;-69
2023/10/01 08:44:47;;;;;;;;;;;;;;;16.95;100.00;102329.06;5025534;28;19928;-71
2023/10/01 08:47:28;;;;;;;;;;;;;;;16.99;100.00;102321.56;5025675;28;20074;-69
2023/10/01 08:49:55;;;;;;;;;;;;;;;17.14;100.00;102308.59;5024030;28;19960;-70
2023/10/01 08:52:25;;;;;;;;;;;;;;;17.37;100.00;102312.97;5013675;28;20320;-70
2023/10/01 08:54:53;;;;;;;;;;;;;;;17.50;100.00;102312.81;5027844;28;20366;-70
2023/10/01 08:57:25;;;;;;;;;;;;;;;17.30;100.00;102308.19;5029062;28;20576;-70
2023/10/01 08:59:53;;;;;;;;;;;;;;;17.38;100.00;102309.25;5009477;28;20268;-72
2023/10/01 09:02:19;;;;;;;;;;;;;;;17.56;100.00;102302.41;5026871;28;19925;-70
2023/10/01 09:04:45;;;;;;;;;;;;;;;17.79;100.00;102306.75;5024121;28;19932;-71
2023/10/01 09:07:19;;;;;;;;;;;;;;;18.02;100.00;102312.09;5023201;28;20349;-69
2023/10/01 09:09:52;;;;;;;;;;;;;;;18.09;100.00;102315.16;5024341;28;19924;-71
2023/10/01 09:12:18;;;;;;;;;;;;;;;18.19;100.00;102312.50;5024393;28;20032;-69
2023/10/01 09:14:46;;;;;;;;;;;;;;;18.38;100.00;102312.59;5011067;28;19948;-70
2023/10/01 09:17:27;;;;;;;;;;;;;;;18.47;100.00;102312.78;5019768;28;20478;-69
2023/10/01 09:19:52;;;;;;;;;;;;;;;18.74;100.00;102313.03;5020888;28;19927;-71
2023/10/01 09:24:55;;;;;;;;;;;;;;;18.40;100.00;102309.75;5023886;28;20034;-72
2023/10/01 09:27:24;;;;;;;;;;;;;;;18.42;100.00;102305.88;5009310;28;21007;-71
2023/10/01 09:29:57;;;;;;;;;;;;;;;18.40;100.00;102307.88;5026985;28;19927;-70
2023/10/01 09:32:49;;;;;;;;;;;;;;;18.40;100.00;102301.59;5024105;28;19920;-69
2023/10/01 09:35:16;;;;;;;;;;;;;;;18.29;100.00;102284.38;5027571;28;20031;-71
2023/10/01 09:37:52;;;;;;;;;;;;;;;18.31;100.00;102300.53;5024703;28;19979;-70
2023/10/01 09:40:33;;;;;;;;;;;;;;;18.14;100.00;102302.88;5027823;28;20047;-70
2023/10/01 09:43:02;;;;;;;;;;;;;;;18.38;100.00;102296.28;5008402;28;19928;-69
2023/10/01 09:45:29;;;;;;;;;;;;;;;18.50;100.00;102294.31;5007296;28;19980;-70
2023/10/01 09:47:57;;;;;;;;;;;;;;;18.86;100.00;102296.59;5023205;28;20039;-70
2023/10/01 09:50:23;;;;;;;;;;;;;;;18.98;100.00;102298.25;5021988;28;20156;-69
2023/10/01 09:52:52;;;;;;;;;;;;;;;18.89;100.00;102301.75;5002147;28;19925;-69
2023/10/01 09:55:26;;;;;;;;;;;;;;;18.85;100.00;102312.06;5016184;28;19924;-71
2023/10/01 09:57:54;;;;;;;;;;;;;;;19.12;100.00;102315.16;5029156;28;19971;-72
2023/10/01 10:00:20;;;;;;;;;;;;;;;19.22;100.00;102315.19;5025211;28;19935;-69
2023/10/01 10:02:52;;;;;;;;;;;;;;;19.71;100.00;102307.03;5016169;28;20354;-70
2023/10/01 10:05:26;;;;;;;;;;;;;;;19.99;100.00;102313.53;5013382;28;19921;-69
2023/10/01 10:07:55;;;;;;;;;;;;;;;19.83;100.00;102297.72;5026521;28;19986;-71
2023/10/01 10:10:24;;;;;;;;;;;;;;;19.71;100.00;102302.47;5031677;28;20493;-69
2023/10/01 10:13:09;;;;;;;;;;;;;;;19.80;100.00;102292.56;5029466;28;19924;-72
2023/10/01 10:15:53;;;;;;;;;;;;;;;20.10;100.00;102301.59;5032117;28;19929;-71
2023/10/01 10:18:23;;;;;;;;;;;;;;;20.04;100.00;102296.72;5028125;28;19967;-71
2023/10/01 10:21:03;;;;;;;;;;;;;;;20.31;100.00;102290.44;5032321;28;22637;-71
2023/10/01 10:23:29;;;;;;;;;;;;;;;20.48;100.00;102293.44;5028877;28;19920;-70
2023/10/01 10:26:12;;;;;;;;;;;;;;;20.63;100.00;102283.72;5030708;28;19921;-71
2023/10/01 10:28:57;;;;;;;;;;;;;;;20.64;100.00;102281.88;5035845;28;19921;-72
2023/10/01 10:31:29;;;;;;;;;;;;;;;20.67;100.00;102287.88;5026742;28;19924;-71
2023/10/01 10:34:26;;;;;;;;;;;;;;;20.97;100.00;102287.72;5017704;28;21812;-71
2023/10/01 10:36:54;;;;;;;;;;;;;;;20.89;100.00;102287.66;5027230;28;19943;-71
2023/10/01 10:39:40;;;;;;;;;;;;;;;21.79;100.00;102293.16;5027932;28;19974;-68
2023/10/01 10:42:31;;;;;;;;;;;;;;;21.68;100.00;102298.88;5024712;28;19921;-71
2023/10/01 10:45:21;;;;;;;;;;;;;;;21.97;100.00;102281.31;5030042;28;20331;-69
2023/10/01 10:48:01;;;;;;;;;;;;;;;22.21;100.00;102283.38;5033532;28;19927;-70
2023/10/01 10:50:45;;;;;;;;;;;;;;;22.21;100.00;102283.38;5025221;28;19921;-71
2023/10/01 10:53:20;;;;;;;;;;;;;;;22.26;100.00;102278.25;5031174;28;19940;-71
2023/10/01 10:55:55;;;;;;;;;;;;;;;22.10;100.00;102289.09;5018100;28;19984;-72
2023/10/01 10:58:24;;;;;;;;;;;;;;;21.98;100.00;102275.69;5017292;28;20727;-70
2023/10/01 11:00:50;;;;;;;;;;;;;;;22.22;100.00;102273.28;5037646;28;19921;-70
2023/10/01 11:03:16;;;;;;;;;;;;;;;22.37;100.00;102265.31;5013281;28;20508;-71
2023/10/01 11:05:51;;;;;;;;;;;;;;;22.47;100.00;102266.94;5032550;28;19977;-71
2023/10/01 11:08:36;;;;;;;;;;;;;;;22.68;99.32;102260.19;5013966;28;19924;-71
2023/10/01 11:11:10;;;;;;;;;;;;;;;23.31;100.00;102260.69;5024637;28;20006;-71
2023/10/01 11:13:42;;;;;;;;;;;;;;;23.21;100.00;102270.91;5034188;28;19986;-71
2023/10/01 11:16:16;;;;;;;;;;;;;;;23.11;93.88;102256.53;5017443;28;20091;-72
2023/10/01 11:18:44;;;;;;;;;;;;;;;23.00;95.11;102252.25;5030493;28;19920;-71
2023/10/01 11:21:20;;;;;;;;;;;;;;;23.55;97.76;102247.19;5014949;28;19971;-71
2023/10/01 11:23:46;;;;;;;;;;;;;;;23.38;99.25;102244.44;5036324;28;20018;-69
2023/10/01 11:26:26;;;;;;;;;;;;;;;23.16;96.21;102241.31;5033636;28;19923;-71
2023/10/01 11:28:51;;;;;;;;;;;;;;;23.28;92.41;102241.88;5013233;28;19936;-73
2023/10/01 11:31:25;;;;;;;;;;;;;;;23.80;96.47;102237.03;5020843;28;20374;-72
2023/10/01 11:34:21;;;;;;;;;;;;;;;23.61;90.86;102230.03;5012595;28;19920;-71
2023/10/01 11:36:47;;;;;;;;;;;;;;;24.30;93.58;102231.44;5030958;28;19921;-70
2023/10/01 11:39:16;;;;;;;;;;;;;;;23.93;87.21;102240.13;5033802;28;19924;-70
2023/10/01 11:41:41;;;;;;;;;;;;;;;24.04;89.85;102232.56;5029860;28;19927;-68
2023/10/01 11:44:08;;;;;;;;;;;;;;;24.05;89.41;102235.16;5021339;28;19920;-70
2023/10/01 11:46:57;;;;;;;;;;;;;;;23.78;88.40;102223.53;5029125;28;19924;-69
2023/10/01 11:49:32;;;;;;;;;;;;;;;24.39;87.89;102213.94;5026935;28;19963;-69
2023/10/01 11:52:05;;;;;;;;;;;;;;;24.96;80.31;102214.69;5033073;28;20314;-70
2023/10/01 11:54:43;;;;;;;;;;;;;;;25.12;80.33;102220.03;5011726;28;20028;-72
2023/10/01 11:57:09;;;;;;;;;;;;;;;24.93;80.36;102215.03;5030499;28;19967;-71
2023/10/01 11:59:35;;;;;;;;;;;;;;;24.79;87.77;102209.28;5028770;28;19960;-69
2023/10/01 12:02:18;;;;;;;;;;;;;;;25.95;77.82;102218.47;5014374;28;19917;-72
2023/10/01 12:04:43;;;;;;;;;;;;;;;25.80;71.13;102204.72;5018573;28;19931;-72
2023/10/01 12:07:18;;;;;;;;;;;;;;;25.54;78.85;102212.34;5014996;28;19921;-72
2023/10/01 12:09:50;;;;;;;;;;;;;;;25.36;73.57;102196.13;5016292;28;19924;-74
2023/10/01 12:12:16;;;;;;;;;;;;;;;25.66;74.01;102200.91;5018066;28;19924;-70
2023/10/01 12:14:54;;;;;;;;;;;;;;;25.32;77.18;102203.03;5030114;28;19932;-72
2023/10/01 12:17:23;;;;;;;;;;;;;;;24.96;78.73;102193.53;5022830;28;19932;-71
2023/10/01 12:19:59;;;;;;;;;;;;;;;25.17;78.82;102197.50;5011114;28;19936;-72
2023/10/01 12:22:24;;;;;;;;;;;;;;;26.15;78.14;102197.63;5016330;28;19925;-72
2023/10/01 12:24:56;;;;;;;;;;;;;;;26.34;71.18;102193.44;5041586;28;20298;-74
2023/10/01 12:27:37;;;;;;;;;;;;;;;25.69;72.47;102201.38;5025846;28;19913;-72
2023/10/01 12:30:04;;;;;;;;;;;;;;;25.72;74.81;102181.75;5025245;28;19963;-72
2023/10/01 12:32:41;;;;;;;;;;;;;;;26.80;72.03;102183.16;5018877;28;19960;-72
2023/10/01 12:35:18;;;;;;;;;;;;;;;26.42;69.69;102194.34;5014412;28;19925;-72
2023/10/01 12:37:43;;;;;;;;;;;;;;;26.32;66.26;102159.75;5015676;28;19967;-71
2023/10/01 12:40:16;;;;;;;;;;;;;;;27.11;66.39;102187.53;5028876;28;19974;-74
2023/10/01 12:42:46;;;;;;;;;;;;;;;27.95;62.25;102174.78;5008473;28;19944;-70
2023/10/01 12:45:14;;;;;;;;;;;;;;;28.99;54.11;102177.56;5025141;28;19920;-70
2023/10/01 12:47:41;;;;;;;;;;;;;;;29.03;54.69;102173.28;5028560;28;20207;-70
2023/10/01 12:50:09;;;;;;;;;;;;;;;26.70;59.97;102166.06;5009489;28;20062;-72
2023/10/01 12:52:35;;;;;;;;;;;;;;;26.76;63.07;102179.91;5014802;28;19917;-70
2023/10/01 12:55:01;;;;;;;;;;;;;;;26.66;62.39;102165.63;5008507;28;19928;-71
2023/10/01 12:57:33;;;;;;;;;;;;;;;27.60;61.38;102160.97;5025195;28;19958;-71
2023/10/01 13:02:43;;;;;;;;;;;;;;;27.97;57.99;102160.78;5012929;28;19926;-71
2023/10/01 13:05:21;;;;;;;;;;;;;;;27.95;57.37;102162.88;5013890;28;19917;-71
2023/10/01 13:07:53;;;;;;;;;;;;;;;28.52;57.24;102149.78;5009327;28;19920;-69
2023/10/01 13:10:31;;;;;;;;;;;;;;;26.67;60.08;102147.19;5029122;28;20067;-70